ENVR/VRY METAR and TAF weather

Enter ICAO airport designator
Station Type Date Time Source
ENVR METAR 2020/07/10 13:50 UTC NOAA

ENVR 101350Z 18008KT 9999 SCT014 14/10 Q1007


Station Type Date Time Source
ENVR Decoded METAR 2020/07/10 13:50 UTC NOAA

Station name not available
Jul 10, 2020 - 09:50 AM EDT / 2020.07.10 1350 UTC
Wind: from the S (180 degrees) at 9 MPH (8 KT):0
Visibility: greater than 7 mile(s):0
Sky conditions: partly cloudy
Temperature: 57 F (14 C)
Dew Point: 50 F (10 C)
Relative Humidity: 76%
Pressure (altimeter): 29.74 in. Hg (1007 hPa)
ob: ENVR 101350Z 18008KT 9999 SCT014 14/10 Q1007
cycle: 14

Station Type Date Time Source
ENVR TAF UTC NOAA

Error!

Example: see airport list